This is the latest recevied weather packets stored in our database for station/object W4ZHA. If no packets are shown the sender has not sent any weather packets the latest 10 day(s).
| Time | Temp. | Humidity | Pressure | Rain* | Wind** | Luminosity | Snow |
|---|---|---|---|---|---|---|---|
| 1777828364 | 16.67° C | 53% | 1021.8 hPa | 0 mm | - | 458 W/m² | - |
| 1777828061 | 15.56° C | 55% | 1021.3 hPa | 0 mm | - | 452 W/m² | - |
| 1777827757 | 15.56° C | 55% | 1021.3 hPa | 0 mm | - | 450 W/m² | - |
| 1777827455 | 16.11° C | 54% | 1021.8 hPa | 0 mm | - | 448 W/m² | - |
| 1777827152 | 15.56° C | 55% | 1021.8 hPa | 0 mm | - | 445 W/m² | - |
| 1777826847 | 15.56° C | 55% | 1022.1 hPa | 0 mm | - | 442 W/m² | - |
| 1777826546 | 15.56° C | 56% | 1022.1 hPa | 0 mm | - | 434 W/m² | - |
| 1777826241 | 15.56° C | 55% | 1022.1 hPa | 0 mm | - | 433 W/m² | - |
| 1777825940 | 15.56° C | 56% | 1022.1 hPa | 0 mm | - | 432 W/m² | - |
| 1777825636 | 15° C | 56% | 1022.1 hPa | 0 mm | - | 428 W/m² | - |
| 1777825334 | 15° C | 55% | 1022.4 hPa | 0 mm | - | 423 W/m² | - |
| 1777825031 | 15.56° C | 55% | 1022.4 hPa | 0 mm | - | 424 W/m² | - |
| 1777824727 | 15.56° C | 55% | 1022.4 hPa | 0 mm | - | 422 W/m² | - |
| 1777824424 | 15° C | 56% | 1022.4 hPa | 0 mm | - | 414 W/m² | - |
| 1777824119 | 14.44° C | 57% | 1022.4 hPa | 0 mm | - | 409 W/m² | - |
| 1777823816 | 15.56° C | 56% | 1022.4 hPa | 0 mm | - | 404 W/m² | - |
| 1777823514 | 15° C | 56% | 1022.4 hPa | 0 mm | - | 398 W/m² | - |
| 1777823210 | 15° C | 59% | 1022.4 hPa | 0 mm | - | 383 W/m² | - |
| 1777822908 | 14.44° C | 56% | 1022.4 hPa | 0 mm | - | 326 W/m² | - |
| 1777822606 | 14.44° C | 56% | 1022.4 hPa | 0 mm | - | 193 W/m² | - |
| 1777822304 | 15° C | 56% | 1022.8 hPa | 0 mm | - | 373 W/m² | - |
| 1777822001 | 14.44° C | 56% | 1022.8 hPa | 0 mm | - | 374 W/m² | - |
| 1777821698 | 14.44° C | 57% | 1022.8 hPa | 0 mm | - | 366 W/m² | - |
| 1777821396 | 14.44° C | 59% | 1022.8 hPa | 0 mm | - | 356 W/m² | - |
| 1777821092 | 13.89° C | 58% | 1022.4 hPa | 0 mm | - | 305 W/m² | - |
* Rain latest hour (hover to see other rain measurements)
** Current wind speed in m/s (hover to see current wind gust speed)